sensor_id;sensor_type;location;lat;lon;timestamp;pressure;altitude;pressure_sealevel;temperature;humidity
29063;BME280;71206;48.564;-123.458;2023-11-21T00:02:08;102401.26;;;9.67;67.29
29063;BME280;71206;48.564;-123.458;2023-11-21T00:04:34;102394.69;;;9.63;69.07
29063;BME280;71206;48.564;-123.458;2023-11-21T00:07:01;102387.51;;;9.85;66.29
29063;BME280;71206;48.564;-123.458;2023-11-21T00:09:30;102382.07;;;9.86;66.45
29063;BME280;71206;48.564;-123.458;2023-11-21T00:11:49;102376.68;;;9.61;70.29
29063;BME280;71206;48.564;-123.458;2023-11-21T00:14:15;102371.80;;;9.13;72.33
29063;BME280;71206;48.564;-123.458;2023-11-21T00:16:40;102372.48;;;9.40;70.85
29063;BME280;71206;48.564;-123.458;2023-11-21T00:19:07;102370.04;;;8.90;72.76
29063;BME280;71206;48.564;-123.458;2023-11-21T00:21:30;102371.78;;;9.36;73.18
29063;BME280;71206;48.564;-123.458;2023-11-21T00:23:57;102372.80;;;8.70;78.81
29063;BME280;71206;48.564;-123.458;2023-11-21T00:26:22;102371.01;;;8.58;80.90
29063;BME280;71206;48.564;-123.458;2023-11-21T00:28:47;102378.21;;;9.31;74.30
29063;BME280;71206;48.564;-123.458;2023-11-21T00:31:12;102378.52;;;8.62;77.88
29063;BME280;71206;48.564;-123.458;2023-11-21T00:33:37;102370.26;;;8.74;76.50
29063;BME280;71206;48.564;-123.458;2023-11-21T00:36:03;102376.30;;;8.32;77.57
29063;BME280;71206;48.564;-123.458;2023-11-21T00:38:28;102388.97;;;8.39;78.77
29063;BME280;71206;48.564;-123.458;2023-11-21T00:40:53;102388.20;;;8.18;80.42
29063;BME280;71206;48.564;-123.458;2023-11-21T00:43:18;102380.27;;;8.29;79.07
29063;BME280;71206;48.564;-123.458;2023-11-21T00:45:44;102376.56;;;7.99;81.02
29063;BME280;71206;48.564;-123.458;2023-11-21T00:48:14;102371.64;;;7.86;83.72
29063;BME280;71206;48.564;-123.458;2023-11-21T00:50:35;102355.19;;;8.27;82.51
29063;BME280;71206;48.564;-123.458;2023-11-21T00:53:01;102350.08;;;8.22;82.10
29063;BME280;71206;48.564;-123.458;2023-11-21T00:55:26;102352.85;;;8.75;77.87
29063;BME280;71206;48.564;-123.458;2023-11-21T00:57:52;102353.98;;;8.50;79.67
29063;BME280;71206;48.564;-123.458;2023-11-21T01:00:18;102349.61;;;8.24;81.06
29063;BME280;71206;48.564;-123.458;2023-11-21T01:02:42;102335.13;;;8.22;82.48
29063;BME280;71206;48.564;-123.458;2023-11-21T01:05:09;102337.62;;;7.27;90.43
29063;BME280;71206;48.564;-123.458;2023-11-21T01:07:34;102330.86;;;7.93;87.06
29063;BME280;71206;48.564;-123.458;2023-11-21T01:09:59;102333.79;;;7.83;87.57
29063;BME280;71206;48.564;-123.458;2023-11-21T01:12:24;102337.58;;;8.89;78.39
29063;BME280;71206;48.564;-123.458;2023-11-21T01:14:49;102337.58;;;8.12;80.63
29063;BME280;71206;48.564;-123.458;2023-11-21T01:17:20;102341.34;;;8.62;78.56
29063;BME280;71206;48.564;-123.458;2023-11-21T01:19:40;102343.72;;;8.27;78.23
29063;BME280;71206;48.564;-123.458;2023-11-21T01:22:05;102336.65;;;8.14;82.33
29063;BME280;71206;48.564;-123.458;2023-11-21T01:24:31;102323.41;;;8.36;80.22
29063;BME280;71206;48.564;-123.458;2023-11-21T01:26:56;102320.50;;;7.51;87.65
29063;BME280;71206;48.564;-123.458;2023-11-21T01:29:24;102319.41;;;7.33;88.86
29063;BME280;71206;48.564;-123.458;2023-11-21T01:31:51;102313.15;;;7.68;87.83
29063;BME280;71206;48.564;-123.458;2023-11-21T01:34:12;102318.40;;;7.67;84.97
29063;BME280;71206;48.564;-123.458;2023-11-21T01:36:38;102319.48;;;7.27;87.86
29063;BME280;71206;48.564;-123.458;2023-11-21T01:39:04;102309.04;;;7.54;84.45
29063;BME280;71206;48.564;-123.458;2023-11-21T01:41:28;102311.37;;;7.18;88.76
29063;BME280;71206;48.564;-123.458;2023-11-21T01:43:54;102311.82;;;7.25;88.38
29063;BME280;71206;48.564;-123.458;2023-11-21T01:46:21;102307.64;;;7.11;89.34
29063;BME280;71206;48.564;-123.458;2023-11-21T01:48:45;102307.65;;;7.18;87.90
29063;BME280;71206;48.564;-123.458;2023-11-21T01:51:12;102311.75;;;7.31;86.44
29063;BME280;71206;48.564;-123.458;2023-11-21T01:53:36;102305.01;;;7.38;86.16
29063;BME280;71206;48.564;-123.458;2023-11-21T01:56:01;102299.96;;;7.21;86.02
29063;BME280;71206;48.564;-123.458;2023-11-21T01:58:26;102291.37;;;7.36;84.84
29063;BME280;71206;48.564;-123.458;2023-11-21T02:00:52;102285.69;;;7.00;88.16
29063;BME280;71206;48.564;-123.458;2023-11-21T02:03:17;102283.55;;;7.23;84.87
29063;BME280;71206;48.564;-123.458;2023-11-21T02:05:42;102279.15;;;7.30;83.36
29063;BME280;71206;48.564;-123.458;2023-11-21T02:08:07;102280.88;;;6.80;87.47
29063;BME280;71206;48.564;-123.458;2023-11-21T02:10:33;102276.19;;;7.30;84.12
29063;BME280;71206;48.564;-123.458;2023-11-21T02:12:57;102277.77;;;6.94;86.17
29063;BME280;71206;48.564;-123.458;2023-11-21T02:15:26;102267.96;;;7.52;85.06
29063;BME280;71206;48.564;-123.458;2023-11-21T02:17:50;102260.38;;;7.08;83.80
29063;BME280;71206;48.564;-123.458;2023-11-21T02:20:13;102250.66;;;8.19;77.23
29063;BME280;71206;48.564;-123.458;2023-11-21T02:22:41;102246.80;;;7.48;79.45
29063;BME280;71206;48.564;-123.458;2023-11-21T02:25:04;102257.27;;;6.91;82.84
29063;BME280;71206;48.564;-123.458;2023-11-21T02:27:29;102264.36;;;7.13;85.86
29063;BME280;71206;48.564;-123.458;2023-11-21T02:29:54;102262.09;;;7.49;83.08
29063;BME280;71206;48.564;-123.458;2023-11-21T02:32:20;102263.07;;;6.61;87.34
29063;BME280;71206;48.564;-123.458;2023-11-21T02:34:44;102266.83;;;6.80;87.80
29063;BME280;71206;48.564;-123.458;2023-11-21T02:37:10;102270.56;;;6.78;91.34
29063;BME280;71206;48.564;-123.458;2023-11-21T02:39:34;102266.48;;;6.70;90.53
29063;BME280;71206;48.564;-123.458;2023-11-21T02:42:00;102257.98;;;6.67;91.69
29063;BME280;71206;48.564;-123.458;2023-11-21T02:44:25;102252.71;;;6.82;90.13
29063;BME280;71206;48.564;-123.458;2023-11-21T02:46:51;102248.13;;;7.43;84.35
29063;BME280;71206;48.564;-123.458;2023-11-21T02:49:16;102253.10;;;7.15;83.22
29063;BME280;71206;48.564;-123.458;2023-11-21T02:51:41;102258.67;;;7.58;82.77
29063;BME280;71206;48.564;-123.458;2023-11-21T02:54:11;102253.33;;;7.52;79.09
29063;BME280;71206;48.564;-123.458;2023-11-21T02:56:32;102261.59;;;7.04;83.05
29063;BME280;71206;48.564;-123.458;2023-11-21T02:58:57;102259.71;;;7.14;83.65
29063;BME280;71206;48.564;-123.458;2023-11-21T03:01:26;102256.92;;;7.10;82.47
29063;BME280;71206;48.564;-123.458;2023-11-21T03:03:49;102251.62;;;6.71;83.37
29063;BME280;71206;48.564;-123.458;2023-11-21T03:06:13;102251.39;;;6.88;85.70
29063;BME280;71206;48.564;-123.458;2023-11-21T03:08:38;102254.63;;;6.36;90.57
29063;BME280;71206;48.564;-123.458;2023-11-21T03:11:03;102257.90;;;6.35;92.40
29063;BME280;71206;48.564;-123.458;2023-11-21T03:13:28;102255.48;;;6.49;89.07
29063;BME280;71206;48.564;-123.458;2023-11-21T03:15:58;102249.26;;;6.52;87.99
29063;BME280;71206;48.564;-123.458;2023-11-21T03:18:19;102245.65;;;6.27;92.43
29063;BME280;71206;48.564;-123.458;2023-11-21T03:20:44;102243.56;;;6.26;90.42
29063;BME280;71206;48.564;-123.458;2023-11-21T03:23:09;102239.21;;;6.62;88.49
29063;BME280;71206;48.564;-123.458;2023-11-21T03:25:34;102227.57;;;6.70;86.38
29063;BME280;71206;48.564;-123.458;2023-11-21T03:28:00;102222.52;;;6.59;87.97
29063;BME280;71206;48.564;-123.458;2023-11-21T03:30:27;102223.53;;;6.29;90.82
29063;BME280;71206;48.564;-123.458;2023-11-21T03:32:51;102222.84;;;5.12;100.00
29063;BME280;71206;48.564;-123.458;2023-11-21T03:35:16;102221.67;;;5.97;99.06
29063;BME280;71206;48.564;-123.458;2023-11-21T03:37:41;102215.80;;;6.00;100.00
29063;BME280;71206;48.564;-123.458;2023-11-21T03:40:08;102215.40;;;6.31;94.01
29063;BME280;71206;48.564;-123.458;2023-11-21T03:42:32;102217.61;;;6.45;90.81
29063;BME280;71206;48.564;-123.458;2023-11-21T03:44:57;102209.60;;;6.46;91.50
29063;BME280;71206;48.564;-123.458;2023-11-21T03:47:22;102203.15;;;6.57;89.08
29063;BME280;71206;48.564;-123.458;2023-11-21T03:49:48;102203.38;;;6.14;93.04
29063;BME280;71206;48.564;-123.458;2023-11-21T03:52:17;102208.73;;;6.41;91.66
29063;BME280;71206;48.564;-123.458;2023-11-21T03:54:39;102206.67;;;6.45;94.43
29063;BME280;71206;48.564;-123.458;2023-11-21T03:57:05;102202.26;;;6.03;96.69
29063;BME280;71206;48.564;-123.458;2023-11-21T03:59:30;102200.97;;;5.95;97.97
29063;BME280;71206;48.564;-123.458;2023-11-21T04:01:57;102200.16;;;6.23;99.40
29063;BME280;71206;48.564;-123.458;2023-11-21T04:04:23;102191.23;;;6.22;99.66
29063;BME280;71206;48.564;-123.458;2023-11-21T04:06:46;102180.55;;;6.45;93.28
29063;BME280;71206;48.564;-123.458;2023-11-21T04:09:11;102171.32;;;6.46;94.25
29063;BME280;71206;48.564;-123.458;2023-11-21T04:11:37;102170.44;;;6.34;94.75
29063;BME280;71206;48.564;-123.458;2023-11-21T04:14:03;102171.64;;;6.32;96.15
29063;BME280;71206;48.564;-123.458;2023-11-21T04:16:27;102163.88;;;5.90;100.00
29063;BME280;71206;48.564;-123.458;2023-11-21T04:18:53;102152.73;;;6.16;97.09
29063;BME280;71206;48.564;-123.458;2023-11-21T04:21:23;102148.54;;;6.54;94.99
29063;BME280;71206;48.564;-123.458;2023-11-21T04:23:44;102142.54;;;6.06;98.50
29063;BME280;71206;48.564;-123.458;2023-11-21T04:26:09;102136.02;;;6.58;96.59
29063;BME280;71206;48.564;-123.458;2023-11-21T04:28:35;102135.41;;;6.51;94.11
29063;BME280;71206;48.564;-123.458;2023-11-21T04:31:00;102148.44;;;6.28;95.86
29063;BME280;71206;48.564;-123.458;2023-11-21T04:33:28;102141.23;;;6.45;94.63
29063;BME280;71206;48.564;-123.458;2023-11-21T04:35:51;102130.94;;;6.59;94.87
29063;BME280;71206;48.564;-123.458;2023-11-21T04:38:17;102128.91;;;6.10;97.71
29063;BME280;71206;48.564;-123.458;2023-11-21T04:40:41;102137.05;;;6.21;95.89
29063;BME280;71206;48.564;-123.458;2023-11-21T04:43:07;102137.55;;;6.27;93.43
29063;BME280;71206;48.564;-123.458;2023-11-21T04:45:32;102141.26;;;6.34;94.94
29063;BME280;71206;48.564;-123.458;2023-11-21T04:47:56;102133.15;;;6.50;95.02
29063;BME280;71206;48.564;-123.458;2023-11-21T04:50:22;102127.07;;;6.84;92.95
29063;BME280;71206;48.564;-123.458;2023-11-21T04:52:47;102117.89;;;7.00;90.03
29063;BME280;71206;48.564;-123.458;2023-11-21T04:55:13;102121.50;;;7.44;87.16
29063;BME280;71206;48.564;-123.458;2023-11-21T04:57:38;102115.39;;;6.80;91.79
29063;BME280;71206;48.564;-123.458;2023-11-21T05:00:07;102113.30;;;6.66;91.87
29063;BME280;71206;48.564;-123.458;2023-11-21T05:02:28;102115.86;;;6.37;95.27
29063;BME280;71206;48.564;-123.458;2023-11-21T05:04:54;102124.31;;;6.06;100.00
29063;BME280;71206;48.564;-123.458;2023-11-21T05:07:18;102115.03;;;6.27;99.65
29063;BME280;71206;48.564;-123.458;2023-11-21T05:09:44;102104.77;;;6.77;92.85
29063;BME280;71206;48.564;-123.458;2023-11-21T05:12:09;102106.17;;;6.55;92.39
29063;BME280;71206;48.564;-123.458;2023-11-21T05:14:34;102118.17;;;5.86;100.00
29063;BME280;71206;48.564;-123.458;2023-11-21T05:17:00;102109.82;;;6.24;100.00
29063;BME280;71206;48.564;-123.458;2023-11-21T05:19:26;102102.65;;;6.08;100.00
29063;BME280;71206;48.564;-123.458;2023-11-21T05:21:52;102094.18;;;6.65;93.93
29063;BME280;71206;48.564;-123.458;2023-11-21T05:24:16;102091.68;;;6.56;94.64
29063;BME280;71206;48.564;-123.458;2023-11-21T05:26:41;102094.74;;;6.04;100.00
29063;BME280;71206;48.564;-123.458;2023-11-21T05:29:07;102085.32;;;5.98;100.00
29063;BME280;71206;48.564;-123.458;2023-11-21T05:31:32;102094.75;;;6.73;92.57
29063;BME280;71206;48.564;-123.458;2023-11-21T05:34:01;102093.14;;;6.51;92.64
29063;BME280;71206;48.564;-123.458;2023-11-21T05:36:22;102096.64;;;5.66;100.00
29063;BME280;71206;48.564;-123.458;2023-11-21T05:38:47;102085.63;;;5.60;100.00
29063;BME280;71206;48.564;-123.458;2023-11-21T05:41:13;102077.44;;;6.39;100.00
29063;BME280;71206;48.564;-123.458;2023-11-21T05:43:43;102081.96;;;6.58;97.96
29063;BME280;71206;48.564;-123.458;2023-11-21T05:46:04;102071.90;;;6.15;98.92
29063;BME280;71206;48.564;-123.458;2023-11-21T05:48:29;102063.67;;;5.88;100.00
29063;BME280;71206;48.564;-123.458;2023-11-21T05:50:54;102068.59;;;5.63;100.00
29063;BME280;71206;48.564;-123.458;2023-11-21T05:53:20;102073.41;;;5.34;100.00
29063;BME280;71206;48.564;-123.458;2023-11-21T05:55:47;102063.17;;;5.96;100.00
29063;BME280;71206;48.564;-123.458;2023-11-21T05:58:11;102063.39;;;6.54;100.00
29063;BME280;71206;48.564;-123.458;2023-11-21T06:00:38;102094.20;;;5.31;100.00
29063;BME280;71206;48.564;-123.458;2023-11-21T06:03:07;102079.92;;;5.61;100.00
29063;BME280;71206;48.564;-123.458;2023-11-21T06:05:28;102088.13;;;4.99;100.00
29063;BME280;71206;48.564;-123.458;2023-11-21T06:07:54;102091.92;;;4.89;100.00
29063;BME280;71206;48.564;-123.458;2023-11-21T06:10:20;102090.16;;;5.64;100.00
29063;BME280;71206;48.564;-123.458;2023-11-21T06:12:43;102090.05;;;5.94;100.00
29063;BME280;71206;48.564;-123.458;2023-11-21T06:15:10;102089.39;;;5.92;100.00
29063;BME280;71206;48.564;-123.458;2023-11-21T06:17:37;102093.78;;;6.01;100.00
29063;BME280;71206;48.564;-123.458;2023-11-21T06:20:01;102083.22;;;6.34;100.00
29063;BME280;71206;48.564;-123.458;2023-11-21T06:22:25;102079.33;;;6.14;100.00
29063;BME280;71206;48.564;-123.458;2023-11-21T06:24:51;102074.13;;;5.99;100.00
29063;BME280;71206;48.564;-123.458;2023-11-21T06:27:16;102063.91;;;6.22;100.00
29063;BME280;71206;48.564;-123.458;2023-11-21T06:29:42;102053.70;;;6.17;100.00
29063;BME280;71206;48.564;-123.458;2023-11-21T06:32:07;102043.96;;;6.06;100.00
29063;BME280;71206;48.564;-123.458;2023-11-21T06:34:33;102033.16;;;6.43;100.00
29063;BME280;71206;48.564;-123.458;2023-11-21T06:36:58;102023.75;;;6.57;100.00
29063;BME280;71206;48.564;-123.458;2023-11-21T06:39:34;102028.35;;;6.48;95.98
29063;BME280;71206;48.564;-123.458;2023-11-21T06:41:49;102028.65;;;6.18;100.00
29063;BME280;71206;48.564;-123.458;2023-11-21T06:44:14;102031.53;;;5.43;100.00
29063;BME280;71206;48.564;-123.458;2023-11-21T06:46:40;102026.48;;;5.79;100.00
29063;BME280;71206;48.564;-123.458;2023-11-21T06:49:05;102011.62;;;6.17;100.00
29063;BME280;71206;48.564;-123.458;2023-11-21T06:51:32;101996.64;;;6.42;100.00
29063;BME280;71206;48.564;-123.458;2023-11-21T06:53:56;101993.61;;;6.13;100.00
29063;BME280;71206;48.564;-123.458;2023-11-21T06:56:27;101999.18;;;6.02;100.00
29063;BME280;71206;48.564;-123.458;2023-11-21T06:58:48;102004.29;;;5.77;100.00
29063;BME280;71206;48.564;-123.458;2023-11-21T07:01:12;101996.99;;;5.99;100.00
29063;BME280;71206;48.564;-123.458;2023-11-21T07:03:38;101999.89;;;6.06;100.00
29063;BME280;71206;48.564;-123.458;2023-11-21T07:06:04;101993.23;;;5.98;100.00
29063;BME280;71206;48.564;-123.458;2023-11-21T07:08:28;101988.29;;;5.99;100.00
29063;BME280;71206;48.564;-123.458;2023-11-21T07:10:57;101997.57;;;5.84;100.00
29063;BME280;71206;48.564;-123.458;2023-11-21T07:13:19;101999.81;;;6.04;100.00
29063;BME280;71206;48.564;-123.458;2023-11-21T07:15:45;101996.70;;;5.98;98.92
29063;BME280;71206;48.564;-123.458;2023-11-21T07:18:10;101992.65;;;6.05;97.93
29063;BME280;71206;48.564;-123.458;2023-11-21T07:20:35;101995.75;;;6.10;99.96
29063;BME280;71206;48.564;-123.458;2023-11-21T07:23:01;101993.84;;;5.47;100.00
29063;BME280;71206;48.564;-123.458;2023-11-21T07:25:25;101990.15;;;5.89;100.00
29063;BME280;71206;48.564;-123.458;2023-11-21T07:27:51;101986.42;;;6.12;98.62
29063;BME280;71206;48.564;-123.458;2023-11-21T07:30:16;101984.55;;;5.91;96.55
29063;BME280;71206;48.564;-123.458;2023-11-21T07:32:43;101985.18;;;5.76;100.00
29063;BME280;71206;48.564;-123.458;2023-11-21T07:35:08;101975.32;;;6.13;100.00
29063;BME280;71206;48.564;-123.458;2023-11-21T07:37:32;101954.84;;;5.91;97.30
29063;BME280;71206;48.564;-123.458;2023-11-21T07:39:58;101941.50;;;5.81;99.86
29063;BME280;71206;48.564;-123.458;2023-11-21T07:42:24;101938.98;;;5.98;97.52
29063;BME280;71206;48.564;-123.458;2023-11-21T07:44:51;101942.53;;;6.05;96.68
29063;BME280;71206;48.564;-123.458;2023-11-21T07:47:14;101928.96;;;5.81;100.00
29063;BME280;71206;48.564;-123.458;2023-11-21T07:49:39;101919.97;;;6.02;94.96
29063;BME280;71206;48.564;-123.458;2023-11-21T07:52:05;101933.25;;;5.63;100.00
29063;BME280;71206;48.564;-123.458;2023-11-21T07:54:30;101952.10;;;4.66;100.00
29063;BME280;71206;48.564;-123.458;2023-11-21T07:56:55;101945.60;;;5.56;100.00
29063;BME280;71206;48.564;-123.458;2023-11-21T07:59:20;101925.52;;;5.71;100.00
29063;BME280;71206;48.564;-123.458;2023-11-21T08:01:46;101921.60;;;5.89;100.00
29063;BME280;71206;48.564;-123.458;2023-11-21T08:04:11;101927.49;;;5.47;100.00
29063;BME280;71206;48.564;-123.458;2023-11-21T08:06:36;101943.60;;;5.83;100.00
29063;BME280;71206;48.564;-123.458;2023-11-21T08:09:02;101941.68;;;5.89;100.00
29063;BME280;71206;48.564;-123.458;2023-11-21T08:11:26;101931.54;;;6.19;99.12
29063;BME280;71206;48.564;-123.458;2023-11-21T08:13:52;101933.78;;;5.98;98.47
29063;BME280;71206;48.564;-123.458;2023-11-21T08:16:18;101935.76;;;5.89;100.00
29063;BME280;71206;48.564;-123.458;2023-11-21T08:18:43;101932.74;;;5.70;98.46
29063;BME280;71206;48.564;-123.458;2023-11-21T08:21:09;101925.49;;;6.30;92.06
29063;BME280;71206;48.564;-123.458;2023-11-21T08:23:33;101923.98;;;5.99;91.25
29063;BME280;71206;48.564;-123.458;2023-11-21T08:26:00;101923.81;;;6.48;90.16
29063;BME280;71206;48.564;-123.458;2023-11-21T08:28:24;101931.63;;;6.11;91.67
29063;BME280;71206;48.564;-123.458;2023-11-21T08:30:50;101944.11;;;6.53;86.65
29063;BME280;71206;48.564;-123.458;2023-11-21T08:33:15;101942.41;;;6.25;89.65
29063;BME280;71206;48.564;-123.458;2023-11-21T08:35:39;101936.31;;;6.22;87.46
29063;BME280;71206;48.564;-123.458;2023-11-21T08:38:07;101927.80;;;5.97;92.50
29063;BME280;71206;48.564;-123.458;2023-11-21T08:40:31;101937.17;;;5.14;100.00
29063;BME280;71206;48.564;-123.458;2023-11-21T08:42:56;101930.52;;;5.45;98.71
29063;BME280;71206;48.564;-123.458;2023-11-21T08:45:21;101920.05;;;5.50;94.70
29063;BME280;71206;48.564;-123.458;2023-11-21T08:47:47;101923.18;;;5.61;94.61
29063;BME280;71206;48.564;-123.458;2023-11-21T08:50:12;101917.86;;;5.10;100.00
29063;BME280;71206;48.564;-123.458;2023-11-21T08:52:38;101923.01;;;5.45;100.00
29063;BME280;71206;48.564;-123.458;2023-11-21T08:55:03;101920.91;;;5.94;94.10
29063;BME280;71206;48.564;-123.458;2023-11-21T08:57:28;101920.43;;;5.95;92.47
29063;BME280;71206;48.564;-123.458;2023-11-21T08:59:53;101917.27;;;6.17;90.17
29063;BME280;71206;48.564;-123.458;2023-11-21T09:02:18;101928.37;;;5.58;94.95
29063;BME280;71206;48.564;-123.458;2023-11-21T09:04:44;101926.55;;;5.87;92.17
29063;BME280;71206;48.564;-123.458;2023-11-21T09:07:14;101918.51;;;5.56;93.98
29063;BME280;71206;48.564;-123.458;2023-11-21T09:09:35;101916.72;;;5.91;95.03
29063;BME280;71206;48.564;-123.458;2023-11-21T09:12:04;101913.95;;;5.72;93.38
29063;BME280;71206;48.564;-123.458;2023-11-21T09:14:26;101904.04;;;6.18;90.43
29063;BME280;71206;48.564;-123.458;2023-11-21T09:16:51;101899.85;;;6.12;88.44
29063;BME280;71206;48.564;-123.458;2023-11-21T09:19:16;101905.57;;;4.77;100.00
29063;BME280;71206;48.564;-123.458;2023-11-21T09:21:42;101903.11;;;5.29;100.00
29063;BME280;71206;48.564;-123.458;2023-11-21T09:24:08;101897.92;;;5.43;99.87
29063;BME280;71206;48.564;-123.458;2023-11-21T09:26:33;101899.69;;;5.70;95.09
29063;BME280;71206;48.564;-123.458;2023-11-21T09:28:58;101891.19;;;6.31;87.83
29063;BME280;71206;48.564;-123.458;2023-11-21T09:31:23;101894.95;;;5.65;92.26
29063;BME280;71206;48.564;-123.458;2023-11-21T09:33:49;101890.57;;;5.92;90.83
29063;BME280;71206;48.564;-123.458;2023-11-21T09:36:14;101884.45;;;5.54;94.62
29063;BME280;71206;48.564;-123.458;2023-11-21T09:38:40;101879.40;;;5.91;88.87
29063;BME280;71206;48.564;-123.458;2023-11-21T09:41:05;101878.50;;;5.79;88.12
29063;BME280;71206;48.564;-123.458;2023-11-21T09:43:31;101861.12;;;6.09;85.31
29063;BME280;71206;48.564;-123.458;2023-11-21T09:45:59;101854.48;;;5.74;90.37
29063;BME280;71206;48.564;-123.458;2023-11-21T09:48:21;101841.57;;;5.67;90.45
29063;BME280;71206;48.564;-123.458;2023-11-21T09:50:47;101849.31;;;5.80;87.68
29063;BME280;71206;48.564;-123.458;2023-11-21T09:53:16;101850.65;;;5.47;91.79
29063;BME280;71206;48.564;-123.458;2023-11-21T09:55:37;101857.08;;;5.19;94.64
29063;BME280;71206;48.564;-123.458;2023-11-21T09:58:03;101855.45;;;4.97;97.38
29063;BME280;71206;48.564;-123.458;2023-11-21T10:00:28;101843.99;;;5.27;94.00
29063;BME280;71206;48.564;-123.458;2023-11-21T10:02:53;101840.53;;;5.60;91.05
29063;BME280;71206;48.564;-123.458;2023-11-21T10:05:18;101838.80;;;5.44;90.66
29063;BME280;71206;48.564;-123.458;2023-11-21T10:07:45;101841.43;;;5.62;90.41
29063;BME280;71206;48.564;-123.458;2023-11-21T10:10:09;101831.84;;;5.23;92.25
29063;BME280;71206;48.564;-123.458;2023-11-21T10:12:35;101833.19;;;5.12;92.84
29063;BME280;71206;48.564;-123.458;2023-11-21T10:15:01;101830.81;;;5.47;92.01
29063;BME280;71206;48.564;-123.458;2023-11-21T10:17:26;101830.96;;;5.84;91.55
29063;BME280;71206;48.564;-123.458;2023-11-21T10:19:51;101828.03;;;5.27;90.36
29063;BME280;71206;48.564;-123.458;2023-11-21T10:22:16;101817.59;;;5.55;90.97
29063;BME280;71206;48.564;-123.458;2023-11-21T10:24:41;101825.95;;;5.72;87.98
29063;BME280;71206;48.564;-123.458;2023-11-21T10:27:07;101832.69;;;5.55;89.46
29063;BME280;71206;48.564;-123.458;2023-11-21T10:29:32;101840.06;;;5.24;90.42
29063;BME280;71206;48.564;-123.458;2023-11-21T10:32:00;101829.84;;;5.51;89.52
29063;BME280;71206;48.564;-123.458;2023-11-21T10:34:23;101817.56;;;5.57;89.18
29063;BME280;71206;48.564;-123.458;2023-11-21T10:36:49;101817.94;;;5.52;90.14
29063;BME280;71206;48.564;-123.458;2023-11-21T10:39:16;101831.95;;;5.60;91.13
29063;BME280;71206;48.564;-123.458;2023-11-21T10:41:41;101835.16;;;5.42;93.83
29063;BME280;71206;48.564;-123.458;2023-11-21T10:44:05;101821.90;;;5.37;93.35
29063;BME280;71206;48.564;-123.458;2023-11-21T10:46:30;101811.46;;;5.07;96.82
29063;BME280;71206;48.564;-123.458;2023-11-21T10:48:55;101808.94;;;5.47;93.03
29063;BME280;71206;48.564;-123.458;2023-11-21T10:51:21;101802.99;;;5.00;97.82
29063;BME280;71206;48.564;-123.458;2023-11-21T10:53:49;101804.22;;;5.08;98.91
29063;BME280;71206;48.564;-123.458;2023-11-21T10:56:14;101804.37;;;5.66;96.77
29063;BME280;71206;48.564;-123.458;2023-11-21T10:58:37;101800.59;;;5.10;98.77
29063;BME280;71206;48.564;-123.458;2023-11-21T11:01:06;101803.59;;;5.68;92.59
29063;BME280;71206;48.564;-123.458;2023-11-21T11:03:27;101799.64;;;5.33;93.36
29063;BME280;71206;48.564;-123.458;2023-11-21T11:05:53;101795.41;;;5.45;92.47
29063;BME280;71206;48.564;-123.458;2023-11-21T11:08:20;101788.06;;;5.26;94.75
29063;BME280;71206;48.564;-123.458;2023-11-21T11:10:44;101784.97;;;5.52;93.06
29063;BME280;71206;48.564;-123.458;2023-11-21T11:13:10;101781.70;;;5.67;90.70
29063;BME280;71206;48.564;-123.458;2023-11-21T11:15:34;101775.57;;;5.92;89.72
29063;BME280;71206;48.564;-123.458;2023-11-21T11:18:05;101769.34;;;5.24;92.66
29063;BME280;71206;48.564;-123.458;2023-11-21T11:20:29;101766.28;;;5.04;93.99
29063;BME280;71206;48.564;-123.458;2023-11-21T11:22:59;101773.45;;;5.28;92.01
29063;BME280;71206;48.564;-123.458;2023-11-21T11:25:25;101766.11;;;5.21;91.58
29063;BME280;71206;48.564;-123.458;2023-11-21T11:27:48;101758.38;;;4.88;94.95
29063;BME280;71206;48.564;-123.458;2023-11-21T11:30:15;101757.41;;;4.63;98.64
29063;BME280;71206;48.564;-123.458;2023-11-21T11:32:40;101757.11;;;4.98;99.61
29063;BME280;71206;48.564;-123.458;2023-11-21T11:35:04;101755.30;;;5.18;100.00
29063;BME280;71206;48.564;-123.458;2023-11-21T11:37:24;101753.72;;;5.07;98.36
29063;BME280;71206;48.564;-123.458;2023-11-21T11:39:50;101753.31;;;4.96;99.33
29063;BME280;71206;48.564;-123.458;2023-11-21T11:42:15;101762.04;;;5.34;94.57
29063;BME280;71206;48.564;-123.458;2023-11-21T11:44:50;101754.11;;;5.69;91.57
29063;BME280;71206;48.564;-123.458;2023-11-21T11:47:13;101744.72;;;5.19;95.58
29063;BME280;71206;48.564;-123.458;2023-11-21T11:49:30;101742.74;;;5.22;97.48
29063;BME280;71206;48.564;-123.458;2023-11-21T11:56:46;101728.83;;;5.06;97.43
29063;BME280;71206;48.564;-123.458;2023-11-21T11:59:11;101726.44;;;4.96;100.00
29063;BME280;71206;48.564;-123.458;2023-11-21T12:01:37;101717.41;;;5.29;100.00
29063;BME280;71206;48.564;-123.458;2023-11-21T12:06:33;101715.39;;;4.31;100.00
29063;BME280;71206;48.564;-123.458;2023-11-21T12:08:53;101708.03;;;5.14;100.00
29063;BME280;71206;48.564;-123.458;2023-11-21T12:11:19;101705.95;;;5.29;95.04
29063;BME280;71206;48.564;-123.458;2023-11-21T12:13:49;101699.47;;;4.77;100.00
29063;BME280;71206;48.564;-123.458;2023-11-21T12:16:09;101699.75;;;4.56;100.00
29063;BME280;71206;48.564;-123.458;2023-11-21T12:18:36;101696.58;;;4.50;100.00
29063;BME280;71206;48.564;-123.458;2023-11-21T12:21:00;101702.73;;;4.89;100.00
29063;BME280;71206;48.564;-123.458;2023-11-21T12:23:26;101708.68;;;4.99;100.00
29063;BME280;71206;48.564;-123.458;2023-11-21T12:25:51;101709.98;;;5.20;99.12